Time;durP1;ratioP1;P1;durP2;ratioP2;P2;SDS_P1;SDS_P2;PMS_P1;PMS_P2;Temp;Humidity;BMP_temperature;BMP_pressure;BME280_temperature;BME280_humidity;BME280_pressure;Samples;Min_cycle;Max_cycle;Signal;HPM_P1;HPM_P2
2021/07/08 00:01:48;;;;;;;8.18;3.78;;;;;;;;;;5000860;28;20042;-56
2021/07/08 00:04:14;;;;;;;10.65;4.43;;;;;;;;;;5002642;28;20034;-57
2021/07/08 00:06:41;;;;;;;10.25;4.93;;;;;;;;;;5012506;28;20048;-56
2021/07/08 00:09:07;;;;;;;8.05;4.50;;;;;;;;;;5022385;28;20087;-56
2021/07/08 00:11:34;;;;;;;9.38;4.68;;;;;;;;;;5020544;28;20038;-52
2021/07/08 00:14:01;;;;;;;11.32;4.40;;;;;;;;;;5039074;28;20038;-56
2021/07/08 00:16:28;;;;;;;11.27;4.78;;;;;;;;;;5012093;28;20045;-57
2021/07/08 00:18:55;;;;;;;10.55;4.65;;;;;;;;;;5003673;28;20042;-56
2021/07/08 00:21:22;;;;;;;11.52;4.63;;;;;;;;;;5005058;28;20101;-55
2021/07/08 00:23:49;;;;;;;8.13;4.30;;;;;;;;;;5041357;28;20045;-54
2021/07/08 00:26:15;;;;;;;8.73;4.20;;;;;;;;;;5036261;28;20053;-55
2021/07/08 00:28:42;;;;;;;8.55;4.43;;;;;;;;;;5024375;28;20092;-56
2021/07/08 00:31:09;;;;;;;11.15;4.55;;;;;;;;;;5023685;28;20052;-56
2021/07/08 00:33:37;;;;;;;8.07;4.43;;;;;;;;;;5020531;28;20057;-55
2021/07/08 00:36:04;;;;;;;8.25;5.13;;;;;;;;;;5024712;28;20056;-56
2021/07/08 00:38:30;;;;;;;13.82;5.70;;;;;;;;;;5034178;28;20049;-56
2021/07/08 00:41:02;;;;;;;10.45;4.93;;;;;;;;;;5023481;28;20037;-56
2021/07/08 00:43:30;;;;;;;9.13;4.65;;;;;;;;;;5007875;28;20070;-52
2021/07/08 00:45:57;;;;;;;7.97;4.03;;;;;;;;;;5023136;28;20046;-56
2021/07/08 00:48:23;;;;;;;10.02;4.43;;;;;;;;;;5009920;28;20026;-53
2021/07/08 00:50:52;;;;;;;7.47;4.63;;;;;;;;;;5004248;28;20041;-52
2021/07/08 00:53:19;;;;;;;8.02;4.57;;;;;;;;;;5006854;28;20030;-58
2021/07/08 00:55:47;;;;;;;8.40;4.82;;;;;;;;;;5015396;28;20180;-55
2021/07/08 00:58:17;;;;;;;8.50;4.53;;;;;;;;;;5018840;28;20056;-57
2021/07/08 01:00:44;;;;;;;10.30;4.60;;;;;;;;;;5040382;28;20056;-55
2021/07/08 01:03:10;;;;;;;9.82;4.82;;;;;;;;;;5029723;28;20062;-52
2021/07/08 01:05:38;;;;;;;10.82;4.97;;;;;;;;;;4986260;28;20046;-55
2021/07/08 01:08:06;;;;;;;10.35;5.22;;;;;;;;;;5004715;28;20041;-55
2021/07/08 01:10:35;;;;;;;9.70;5.22;;;;;;;;;;5022336;28;20064;-57
2021/07/08 01:13:02;;;;;;;10.68;5.35;;;;;;;;;;5016891;28;20045;-56
2021/07/08 01:15:28;;;;;;;9.77;4.95;;;;;;;;;;5001514;28;20034;-57
2021/07/08 01:17:55;;;;;;;10.40;5.45;;;;;;;;;;5003106;28;20042;-57
2021/07/08 01:20:25;;;;;;;9.07;5.05;;;;;;;;;;4999584;28;20065;-56
2021/07/08 01:22:58;;;;;;;10.95;5.57;;;;;;;;;;5003131;28;20046;-56
2021/07/08 01:25:25;;;;;;;10.32;5.03;;;;;;;;;;4997603;28;20050;-54
2021/07/08 01:27:52;;;;;;;15.07;6.80;;;;;;;;;;5004932;28;20050;-56
2021/07/08 01:30:23;;;;;;;15.32;7.93;;;;;;;;;;5016934;28;20037;-55
2021/07/08 01:32:49;;;;;;;11.18;6.05;;;;;;;;;;5022081;28;20048;-55
2021/07/08 01:35:16;;;;;;;12.05;5.80;;;;;;;;;;5004213;28;20042;-54
2021/07/08 01:37:42;;;;;;;16.08;5.47;;;;;;;;;;5003174;28;20045;-55
2021/07/08 01:40:11;;;;;;;15.15;5.55;;;;;;;;;;5014408;28;20065;-55
2021/07/08 01:42:38;;;;;;;9.82;5.03;;;;;;;;;;5022123;28;20045;-55
2021/07/08 01:45:05;;;;;;;9.13;5.13;;;;;;;;;;5016592;28;20045;-56
2021/07/08 01:47:31;;;;;;;10.85;5.82;;;;;;;;;;5021667;28;20053;-57
2021/07/08 01:49:58;;;;;;;13.68;6.20;;;;;;;;;;5012349;28;20057;-56
2021/07/08 01:52:25;;;;;;;13.43;6.00;;;;;;;;;;5002878;28;20042;-56
2021/07/08 01:54:51;;;;;;;10.98;5.68;;;;;;;;;;5001192;28;20053;-55
2021/07/08 01:57:19;;;;;;;10.00;5.40;;;;;;;;;;5022277;28;20101;-54
2021/07/08 01:59:46;;;;;;;11.47;5.57;;;;;;;;;;5018405;28;20049;-55
2021/07/08 02:02:12;;;;;;;12.00;5.45;;;;;;;;;;5019604;28;20262;-55
2021/07/08 02:04:38;;;;;;;12.60;5.60;;;;;;;;;;5021314;28;20033;-55
2021/07/08 02:07:05;;;;;;;15.63;5.85;;;;;;;;;;5017322;28;20069;-57
2021/07/08 02:09:31;;;;;;;10.63;5.82;;;;;;;;;;5021383;28;20050;-56
2021/07/08 02:11:59;;;;;;;10.63;5.85;;;;;;;;;;5002506;28;20057;-56
2021/07/08 02:14:27;;;;;;;13.48;5.63;;;;;;;;;;5002225;28;20038;-55
2021/07/08 02:16:53;;;;;;;10.65;5.90;;;;;;;;;;4998270;28;20038;-54
2021/07/08 02:19:20;;;;;;;13.68;5.78;;;;;;;;;;5001112;28;20042;-53
2021/07/08 02:21:47;;;;;;;15.85;7.10;;;;;;;;;;5007877;28;20049;-56
2021/07/08 02:24:13;;;;;;;15.93;6.40;;;;;;;;;;5020832;28;20038;-55
2021/07/08 02:26:40;;;;;;;15.77;6.15;;;;;;;;;;5017718;28;20030;-54
2021/07/08 02:29:06;;;;;;;12.55;6.38;;;;;;;;;;5020505;28;20046;-56
2021/07/08 02:31:34;;;;;;;15.20;6.05;;;;;;;;;;5020977;28;20041;-56
2021/07/08 02:34:01;;;;;;;11.27;6.22;;;;;;;;;;5037725;28;20049;-53
2021/07/08 02:36:27;;;;;;;17.90;6.63;;;;;;;;;;5015467;28;20034;-54
2021/07/08 02:38:53;;;;;;;14.43;6.10;;;;;;;;;;5007764;28;20046;-54
2021/07/08 02:41:24;;;;;;;13.10;6.15;;;;;;;;;;5018396;28;20038;-52
2021/07/08 02:43:51;;;;;;;13.98;6.03;;;;;;;;;;5003258;28;20057;-54
2021/07/08 02:46:17;;;;;;;11.70;5.93;;;;;;;;;;5001284;28;20042;-55
2021/07/08 02:48:45;;;;;;;12.45;6.07;;;;;;;;;;5016889;28;20048;-55
2021/07/08 02:51:12;;;;;;;14.57;5.97;;;;;;;;;;5037815;28;20042;-55
2021/07/08 02:53:38;;;;;;;15.77;6.30;;;;;;;;;;5028734;28;20041;-56
2021/07/08 02:56:05;;;;;;;11.55;5.63;;;;;;;;;;5022873;28;20034;-55
2021/07/08 02:58:31;;;;;;;13.13;5.90;;;;;;;;;;5003829;28;20042;-55
2021/07/08 03:00:58;;;;;;;11.85;5.80;;;;;;;;;;5004331;28;20078;-56
2021/07/08 03:03:24;;;;;;;12.25;6.15;;;;;;;;;;5011657;28;20034;-57
2021/07/08 03:05:52;;;;;;;11.88;5.78;;;;;;;;;;5025288;28;20231;-57
2021/07/08 03:08:21;;;;;;;11.20;5.53;;;;;;;;;;5014010;28;20124;-55
2021/07/08 03:10:48;;;;;;;10.63;5.28;;;;;;;;;;5019876;28;20046;-56
2021/07/08 03:13:14;;;;;;;11.70;6.47;;;;;;;;;;5019782;28;20157;-56
2021/07/08 03:15:42;;;;;;;12.48;6.32;;;;;;;;;;5023366;28;20045;-55
2021/07/08 03:18:09;;;;;;;14.10;6.15;;;;;;;;;;5015269;28;20057;-55
2021/07/08 03:20:35;;;;;;;11.38;5.80;;;;;;;;;;5004500;28;20045;-52
2021/07/08 03:23:04;;;;;;;12.23;6.13;;;;;;;;;;5017110;28;20061;-54
2021/07/08 03:25:30;;;;;;;11.50;6.15;;;;;;;;;;5023738;28;20037;-53
2021/07/08 03:27:57;;;;;;;12.10;5.60;;;;;;;;;;5023609;28;20052;-55
2021/07/08 03:30:24;;;;;;;9.23;5.60;;;;;;;;;;5034220;28;20046;-55
2021/07/08 03:32:51;;;;;;;9.63;5.50;;;;;;;;;;5039513;28;20127;-54
2021/07/08 03:35:18;;;;;;;12.90;5.85;;;;;;;;;;5019686;28;20030;-53
2021/07/08 03:37:45;;;;;;;14.82;5.22;;;;;;;;;;5003468;28;20046;-57
2021/07/08 03:40:17;;;;;;;10.75;5.80;;;;;;;;;;5001035;28;20026;-53
2021/07/08 03:42:45;;;;;;;10.80;5.68;;;;;;;;;;5001590;28;20116;-57
2021/07/08 03:45:12;;;;;;;12.27;6.13;;;;;;;;;;5000848;28;20046;-56
2021/07/08 03:47:38;;;;;;;8.98;4.82;;;;;;;;;;5002479;28;20057;-56
2021/07/08 03:50:08;;;;;;;13.32;5.47;;;;;;;;;;5001334;28;20046;-56
2021/07/08 03:52:34;;;;;;;12.43;5.70;;;;;;;;;;5003075;28;20042;-52
2021/07/08 03:55:01;;;;;;;17.60;5.78;;;;;;;;;;5008757;28;20041;-55
2021/07/08 03:57:28;;;;;;;11.45;5.60;;;;;;;;;;5023481;28;20053;-56
2021/07/08 03:59:55;;;;;;;11.47;5.67;;;;;;;;;;5013012;28;20053;-55
2021/07/08 04:02:21;;;;;;;12.18;5.82;;;;;;;;;;5017128;28;20041;-55
2021/07/08 04:04:48;;;;;;;10.48;6.20;;;;;;;;;;5018661;28;20072;-56
2021/07/08 04:07:14;;;;;;;13.82;5.78;;;;;;;;;;5003836;28;20132;-52
2021/07/08 04:09:42;;;;;;;15.50;6.00;;;;;;;;;;5009344;28;20057;-55
2021/07/08 04:12:09;;;;;;;11.23;6.30;;;;;;;;;;5020888;28;20034;-57
2021/07/08 04:14:37;;;;;;;10.88;6.10;;;;;;;;;;5037753;28;20056;-56
2021/07/08 04:17:03;;;;;;;9.23;5.53;;;;;;;;;;5033776;28;20054;-57
2021/07/08 04:19:30;;;;;;;12.75;6.35;;;;;;;;;;5023912;28;20279;-55
2021/07/08 04:21:58;;;;;;;13.25;6.60;;;;;;;;;;5002922;28;20045;-57
2021/07/08 04:24:24;;;;;;;11.77;6.72;;;;;;;;;;5002887;28;20042;-54
2021/07/08 04:26:52;;;;;;;11.63;6.35;;;;;;;;;;5012529;28;20029;-55
2021/07/08 04:29:18;;;;;;;11.77;6.45;;;;;;;;;;5038528;28;20119;-55
2021/07/08 04:31:46;;;;;;;12.80;6.22;;;;;;;;;;5034371;28;20053;-55
2021/07/08 04:34:12;;;;;;;12.52;6.57;;;;;;;;;;5022799;28;20044;-58
2021/07/08 04:36:39;;;;;;;13.95;5.85;;;;;;;;;;5011199;28;20061;-54
2021/07/08 04:39:05;;;;;;;13.07;6.28;;;;;;;;;;5010959;28;20120;-55
2021/07/08 04:41:36;;;;;;;13.10;6.30;;;;;;;;;;5017354;28;20050;-56
2021/07/08 04:44:02;;;;;;;11.65;6.38;;;;;;;;;;5006037;28;20485;-56
2021/07/08 04:46:29;;;;;;;16.83;6.93;;;;;;;;;;5003713;28;20049;-56
2021/07/08 04:48:57;;;;;;;13.07;5.93;;;;;;;;;;5022459;28;20049;-56
2021/07/08 04:51:24;;;;;;;24.80;7.72;;;;;;;;;;5019834;28;20056;-56
2021/07/08 04:53:52;;;;;;;12.85;6.53;;;;;;;;;;5003109;28;20046;-57
2021/07/08 04:56:20;;;;;;;11.98;6.50;;;;;;;;;;5003001;28;20054;-57
2021/07/08 04:58:46;;;;;;;15.98;6.95;;;;;;;;;;5018217;28;20045;-56
2021/07/08 05:01:13;;;;;;;12.80;6.78;;;;;;;;;;5022417;28;20034;-55
2021/07/08 05:03:40;;;;;;;13.40;6.78;;;;;;;;;;5020693;28;20034;-56
2021/07/08 05:06:08;;;;;;;17.25;6.55;;;;;;;;;;5003217;28;20044;-54
2021/07/08 05:08:34;;;;;;;15.32;7.07;;;;;;;;;;4998864;28;20057;-57
2021/07/08 05:11:00;;;;;;;11.52;6.57;;;;;;;;;;5019829;28;20045;-53
2021/07/08 05:13:27;;;;;;;13.23;6.82;;;;;;;;;;5008976;28;20066;-56
2021/07/08 05:15:53;;;;;;;11.05;6.63;;;;;;;;;;5003473;28;20037;-56
2021/07/08 05:18:22;;;;;;;12.80;7.10;;;;;;;;;;5007575;28;20045;-55
2021/07/08 05:20:49;;;;;;;16.45;7.25;;;;;;;;;;5022489;28;20045;-53
2021/07/08 05:23:18;;;;;;;17.17;6.43;;;;;;;;;;5012089;28;20038;-53
2021/07/08 05:25:45;;;;;;;12.80;7.03;;;;;;;;;;5001766;28;20061;-54
2021/07/08 05:28:12;;;;;;;14.88;6.82;;;;;;;;;;4999485;28;20044;-57
2021/07/08 05:30:39;;;;;;;11.02;6.53;;;;;;;;;;5014666;28;20052;-52
2021/07/08 05:33:06;;;;;;;15.77;7.28;;;;;;;;;;5017641;28;20033;-56
2021/07/08 05:35:32;;;;;;;16.33;7.60;;;;;;;;;;5037853;28;20053;-57
2021/07/08 05:37:59;;;;;;;22.60;7.13;;;;;;;;;;5038031;28;20417;-56
2021/07/08 05:40:27;;;;;;;13.93;6.57;;;;;;;;;;5034645;28;20045;-55
2021/07/08 05:42:53;;;;;;;10.65;6.75;;;;;;;;;;5022268;28;20042;-56
2021/07/08 05:45:22;;;;;;;13.90;7.35;;;;;;;;;;5017590;28;20041;-56
2021/07/08 05:47:49;;;;;;;13.20;7.53;;;;;;;;;;5023851;28;20066;-58
2021/07/08 05:50:16;;;;;;;17.38;7.63;;;;;;;;;;5017412;28;20045;-54
2021/07/08 05:52:43;;;;;;;17.27;7.72;;;;;;;;;;5022865;28;20037;-56
2021/07/08 05:55:10;;;;;;;17.27;8.38;;;;;;;;;;5034904;28;20048;-56
2021/07/08 05:57:46;;;;;;;16.33;7.13;;;;;;;;;;5021581;28;20049;-56
2021/07/08 06:00:13;;;;;;;16.52;7.07;;;;;;;;;;5016167;28;20104;-57
2021/07/08 06:02:40;;;;;;;12.38;7.22;;;;;;;;;;5036853;28;20038;-56
2021/07/08 06:05:07;;;;;;;17.63;7.43;;;;;;;;;;5028343;28;20042;-55
2021/07/08 06:07:33;;;;;;;12.70;7.13;;;;;;;;;;5001492;28;20137;-57
2021/07/08 06:10:00;;;;;;;19.33;7.57;;;;;;;;;;4991611;28;20034;-56
2021/07/08 06:12:28;;;;;;;13.43;7.18;;;;;;;;;;5038242;28;20049;-56
2021/07/08 06:14:56;;;;;;;17.08;8.15;;;;;;;;;;5016076;28;20053;-57
2021/07/08 06:17:22;;;;;;;14.32;6.88;;;;;;;;;;5004267;28;20038;-58
2021/07/08 06:19:52;;;;;;;16.25;6.72;;;;;;;;;;5002455;28;20046;-59
2021/07/08 06:22:19;;;;;;;19.10;7.80;;;;;;;;;;5003016;28;20038;-55
2021/07/08 06:24:45;;;;;;;14.43;7.18;;;;;;;;;;5002424;28;20070;-56
2021/07/08 06:27:12;;;;;;;14.45;7.47;;;;;;;;;;5017167;28;20131;-55
2021/07/08 06:29:38;;;;;;;17.95;6.97;;;;;;;;;;5039240;28;20070;-56
2021/07/08 06:32:07;;;;;;;16.48;7.47;;;;;;;;;;5001832;28;20119;-56
2021/07/08 06:34:34;;;;;;;17.55;6.85;;;;;;;;;;5001320;28;20042;-56
2021/07/08 06:37:00;;;;;;;15.38;7.20;;;;;;;;;;4998560;28;20049;-56
2021/07/08 06:39:27;;;;;;;19.02;7.75;;;;;;;;;;5010143;28;20041;-56
2021/07/08 06:41:54;;;;;;;16.75;7.82;;;;;;;;;;5016359;28;20099;-58
2021/07/08 06:44:20;;;;;;;17.83;8.27;;;;;;;;;;5019395;28;20052;-55
2021/07/08 06:46:51;;;;;;;15.00;7.75;;;;;;;;;;5014361;28;20041;-57
2021/07/08 06:49:20;;;;;;;15.98;8.30;;;;;;;;;;5019789;28;20074;-57
2021/07/08 06:51:46;;;;;;;15.85;7.25;;;;;;;;;;5016584;28;20049;-57
2021/07/08 06:54:13;;;;;;;15.23;8.25;;;;;;;;;;5019507;28;20168;-57
2021/07/08 06:56:39;;;;;;;21.65;9.25;;;;;;;;;;5016464;28;20131;-52
2021/07/08 06:59:06;;;;;;;24.25;11.18;;;;;;;;;;5021125;28;20041;-54
2021/07/08 07:01:34;;;;;;;18.90;8.95;;;;;;;;;;5016786;28;20042;-57
2021/07/08 07:04:01;;;;;;;19.17;8.40;;;;;;;;;;4999306;28;20058;-57
2021/07/08 07:06:29;;;;;;;16.75;7.22;;;;;;;;;;5001842;28;20046;-53
2021/07/08 07:08:55;;;;;;;13.50;6.63;;;;;;;;;;4997773;28;20074;-58
2021/07/08 07:11:24;;;;;;;18.38;7.00;;;;;;;;;;5020823;28;20070;-57
2021/07/08 07:13:50;;;;;;;16.60;6.68;;;;;;;;;;5009775;28;20123;-57
2021/07/08 07:16:17;;;;;;;16.15;6.82;;;;;;;;;;5011222;28;20413;-58
2021/07/08 07:18:43;;;;;;;16.25;6.15;;;;;;;;;;5016580;28;20065;-57
2021/07/08 07:21:11;;;;;;;17.58;6.25;;;;;;;;;;5038497;28;20042;-57
2021/07/08 07:23:42;;;;;;;20.27;6.93;;;;;;;;;;5033632;28;20156;-58
2021/07/08 07:26:08;;;;;;;16.27;6.07;;;;;;;;;;5022071;28;20067;-57
2021/07/08 07:28:34;;;;;;;19.10;6.60;;;;;;;;;;5031193;28;20127;-56
2021/07/08 07:31:01;;;;;;;17.70;6.95;;;;;;;;;;5003734;28;20042;-58
2021/07/08 07:33:27;;;;;;;15.48;6.28;;;;;;;;;;5006248;28;20046;-57
2021/07/08 07:35:54;;;;;;;11.32;6.32;;;;;;;;;;5021203;28;20037;-57
2021/07/08 07:38:21;;;;;;;15.95;6.72;;;;;;;;;;5016585;28;20088;-57
2021/07/08 07:40:49;;;;;;;15.13;5.88;;;;;;;;;;5018954;28;20044;-58
2021/07/08 07:43:16;;;;;;;16.60;6.20;;;;;;;;;;5016530;28;20046;-58
2021/07/08 07:45:43;;;;;;;29.75;14.23;;;;;;;;;;5021224;28;20131;-58
2021/07/08 07:48:10;;;;;;;25.88;9.70;;;;;;;;;;5024123;28;20136;-59
2021/07/08 07:50:38;;;;;;;19.13;6.90;;;;;;;;;;5019426;28;20078;-56
2021/07/08 07:53:05;;;;;;;12.77;6.32;;;;;;;;;;5002833;28;20038;-58
2021/07/08 07:55:31;;;;;;;14.93;6.18;;;;;;;;;;5005219;28;20061;-57
2021/07/08 07:58:00;;;;;;;16.17;6.05;;;;;;;;;;5005641;28;20034;-58
2021/07/08 08:00:27;;;;;;;;;;;;;;;;;;5003052;28;20054;-58
2021/07/08 08:02:54;;;;;;;15.38;5.68;;;;;;;;;;5012515;28;19995;-58
2021/07/08 08:05:36;;;;;;;15.07;6.30;;;;;;;;;;5008420;28;20040;-56
2021/07/08 08:10:47;;;;;;;12.88;5.35;;;;;;;;;;5034009;28;20034;-58
2021/07/08 08:13:15;;;;;;;11.23;5.18;;;;;;;;;;5026311;28;20045;-58
2021/07/08 08:15:41;;;;;;;15.20;5.05;;;;;;;;;;5010218;28;20119;-57
2021/07/08 08:18:08;;;;;;;17.85;5.55;;;;;;;;;;5022836;28;20042;-58
2021/07/08 08:20:35;;;;;;;16.45;5.68;;;;;;;;;;5018975;28;20045;-59
2021/07/08 08:23:01;;;;;;;15.15;5.82;;;;;;;;;;5022061;28;20053;-59
2021/07/08 08:25:27;;;;;;;12.80;6.20;;;;;;;;;;5023184;28;20099;-58
2021/07/08 08:27:54;;;;;;;13.35;5.28;;;;;;;;;;5007571;28;20046;-57
2021/07/08 08:30:22;;;;;;;14.70;5.28;;;;;;;;;;5003547;28;20029;-59
2021/07/08 08:32:49;;;;;;;12.52;5.35;;;;;;;;;;5022450;28;20065;-59
2021/07/08 08:35:17;;;;;;;13.80;5.45;;;;;;;;;;5020411;28;20044;-58
2021/07/08 08:37:43;;;;;;;11.50;5.90;;;;;;;;;;5023476;28;20124;-54
2021/07/08 08:40:14;;;;;;;14.98;5.20;;;;;;;;;;5022600;28;20126;-57
2021/07/08 08:42:42;;;;;;;15.70;5.60;;;;;;;;;;4995430;28;20062;-58
2021/07/08 08:45:11;;;;;;;11.03;6.00;;;;;;;;;;5004864;28;20034;-58
2021/07/08 08:47:52;;;;;;;20.50;9.05;;;;;;;;;;4997852;28;20282;-59
2021/07/08 08:50:19;;;;;;;12.82;5.38;;;;;;;;;;5001999;28;20050;-58
2021/07/08 08:52:46;;;;;;;14.95;4.25;;;;;;;;;;5018625;28;20061;-59
2021/07/08 08:55:13;;;;;;;15.95;4.40;;;;;;;;;;5022702;28;20049;-58
2021/07/08 08:57:40;;;;;;;13.70;4.28;;;;;;;;;;5013925;28;20104;-59
2021/07/08 09:00:30;;;;;;;10.90;4.40;;;;;;;;;;5008496;28;20033;-58
2021/07/08 09:02:59;;;;;;;9.95;3.50;;;;;;;;;;5010388;28;20055;-59
2021/07/08 09:05:25;;;;;;;11.70;3.70;;;;;;;;;;5021106;28;20038;-58
2021/07/08 09:07:52;;;;;;;7.10;2.70;;;;;;;;;;5019605;28;20037;-58
2021/07/08 09:10:23;;;;;;;12.57;3.60;;;;;;;;;;5013673;28;20038;-58
2021/07/08 09:12:57;;;;;;;7.60;2.90;;;;;;;;;;4999107;28;20061;-58
2021/07/08 09:15:24;;;;;;;10.93;3.00;;;;;;;;;;4995807;28;20042;-58
2021/07/08 09:17:51;;;;;;;13.40;3.38;;;;;;;;;;5009033;28;20056;-59
2021/07/08 09:20:20;;;;;;;13.65;3.25;;;;;;;;;;5042254;28;20082;-58
2021/07/08 09:22:46;;;;;;;10.77;3.55;;;;;;;;;;5021140;28;20115;-58
2021/07/08 09:25:25;;;;;;;7.72;3.30;;;;;;;;;;5025838;28;20037;-57
2021/07/08 09:28:09;;;;;;;11.25;3.05;;;;;;;;;;5032150;28;20045;-59
2021/07/08 09:30:36;;;;;;;9.98;3.42;;;;;;;;;;5022363;28;20046;-57
2021/07/08 09:33:03;;;;;;;7.97;3.65;;;;;;;;;;5001285;28;20080;-59
2021/07/08 09:35:43;;;;;;;16.35;3.22;;;;;;;;;;5025184;28;20046;-59
2021/07/08 09:38:10;;;;;;;10.07;2.83;;;;;;;;;;5021034;28;20041;-59
2021/07/08 09:40:37;;;;;;;6.47;2.95;;;;;;;;;;5007480;28;20046;-59
2021/07/08 09:43:03;;;;;;;5.95;2.40;;;;;;;;;;5034854;28;20042;-59
2021/07/08 09:45:30;;;;;;;9.32;2.50;;;;;;;;;;5019110;28;20053;-59
2021/07/08 09:48:09;;;;;;;9.95;3.03;;;;;;;;;;5016210;28;20042;-59
2021/07/08 09:50:37;;;;;;;5.30;2.30;;;;;;;;;;5021171;28;20090;-59
2021/07/08 09:53:06;;;;;;;6.93;2.08;;;;;;;;;;5001975;28;20060;-59
2021/07/08 09:55:55;;;;;;;8.10;2.75;;;;;;;;;;5002272;28;20035;-58
2021/07/08 09:58:22;;;;;;;8.40;2.50;;;;;;;;;;5016251;28;20048;-59
2021/07/08 10:00:48;;;;;;;4.65;2.10;;;;;;;;;;5002301;28;20034;-59
2021/07/08 10:03:15;;;;;;;9.32;2.40;;;;;;;;;;5002048;28;20046;-59
2021/07/08 10:05:43;;;;;;;8.95;2.28;;;;;;;;;;4983705;28;20050;-59
2021/07/08 10:08:10;;;;;;;8.98;2.10;;;;;;;;;;5002417;28;20112;-59
2021/07/08 10:10:37;;;;;;;7.90;2.50;;;;;;;;;;5013916;28;20046;-59
2021/07/08 10:13:05;;;;;;;6.97;2.25;;;;;;;;;;5019688;28;20053;-59
2021/07/08 10:15:34;;;;;;;6.43;2.10;;;;;;;;;;5017524;28;20069;-59
2021/07/08 10:18:02;;;;;;;7.43;2.22;;;;;;;;;;5021952;28;20033;-58
2021/07/08 10:20:29;;;;;;;7.32;3.00;;;;;;;;;;5007225;28;20038;-59
2021/07/08 10:22:57;;;;;;;8.23;2.78;;;;;;;;;;5001153;28;20042;-59
2021/07/08 10:25:24;;;;;;;8.50;3.00;;;;;;;;;;4998870;28;20124;-59
2021/07/08 10:27:52;;;;;;;10.65;2.70;;;;;;;;;;5001694;28;20149;-58
2021/07/08 10:30:21;;;;;;;8.23;2.45;;;;;;;;;;5004021;28;20157;-58
2021/07/08 10:32:53;;;;;;;8.43;2.60;;;;;;;;;;5020928;28;20044;-59
2021/07/08 10:35:37;;;;;;;8.70;2.72;;;;;;;;;;5012332;28;20057;-59
2021/07/08 10:38:28;;;;;;;7.57;2.47;;;;;;;;;;5002241;28;20053;-59
2021/07/08 10:40:55;;;;;;;12.35;3.28;;;;;;;;;;5005074;28;20056;-59
2021/07/08 10:43:33;;;;;;;8.23;2.20;;;;;;;;;;5038625;28;20037;-59
2021/07/08 10:46:00;;;;;;;5.55;2.70;;;;;;;;;;5026627;28;20056;-59
2021/07/08 10:48:38;;;;;;;6.63;2.77;;;;;;;;;;5002645;28;20041;-58
2021/07/08 10:51:05;;;;;;;6.22;2.83;;;;;;;;;;5017638;28;20057;-59
2021/07/08 10:53:35;;;;;;;10.45;3.55;;;;;;;;;;5003421;28;20053;-59
2021/07/08 10:56:05;;;;;;;7.22;2.47;;;;;;;;;;4999479;28;20085;-59
2021/07/08 10:58:54;;;;;;;7.80;2.85;;;;;;;;;;5005028;28;20037;-57
2021/07/08 11:01:55;;;;;;;7.65;3.10;;;;;;;;;;5000131;28;20049;-59
2021/07/08 11:04:39;;;;;;;7.32;3.03;;;;;;;;;;5020634;28;20025;-59
2021/07/08 11:07:19;;;;;;;7.70;2.95;;;;;;;;;;5001227;28;20078;-57
2021/07/08 11:09:57;;;;;;;7.03;3.22;;;;;;;;;;5027547;28;20044;-59
2021/07/08 11:12:29;;;;;;;7.70;2.75;;;;;;;;;;5016856;28;20044;-58
2021/07/08 11:14:55;;;;;;;6.97;2.58;;;;;;;;;;5023846;28;20050;-58
2021/07/08 11:17:22;;;;;;;6.03;2.25;;;;;;;;;;5019075;28;20045;-58
2021/07/08 11:19:53;;;;;;;6.53;2.55;;;;;;;;;;5023353;28;20127;-59
2021/07/08 11:22:27;;;;;;;8.20;2.88;;;;;;;;;;5013108;28;20042;-59
2021/07/08 11:24:54;;;;;;;12.05;2.38;;;;;;;;;;5004100;28;20077;-58
2021/07/08 11:27:33;;;;;;;6.25;2.30;;;;;;;;;;4988164;28;20038;-59
2021/07/08 11:30:03;;;;;;;7.85;2.72;;;;;;;;;;5004492;28;20053;-59
2021/07/08 11:32:31;;;;;;;5.07;2.22;;;;;;;;;;5010464;28;20049;-59
2021/07/08 11:34:58;;;;;;;5.13;2.33;;;;;;;;;;5044299;28;20045;-59
2021/07/08 11:37:27;;;;;;;6.70;2.20;;;;;;;;;;5023078;28;20045;-59
2021/07/08 11:39:54;;;;;;;9.82;2.63;;;;;;;;;;5026051;28;20049;-59
2021/07/08 11:42:23;;;;;;;7.30;2.33;;;;;;;;;;5039068;28;20046;-59
2021/07/08 11:44:53;;;;;;;15.80;2.30;;;;;;;;;;5022761;28;20307;-60
2021/07/08 11:47:19;;;;;;;4.65;2.00;;;;;;;;;;5005989;28;20118;-59
2021/07/08 11:49:47;;;;;;;7.32;1.90;;;;;;;;;;5023038;28;20060;-58
2021/07/08 11:52:18;;;;;;;3.47;1.80;;;;;;;;;;5025642;28;20126;-59
2021/07/08 11:54:55;;;;;;;5.88;2.05;;;;;;;;;;5006325;28;20045;-59
2021/07/08 11:57:22;;;;;;;4.50;1.77;;;;;;;;;;5005337;28;20061;-57
2021/07/08 11:59:48;;;;;;;4.13;2.03;;;;;;;;;;5018424;28;20084;-59
2021/07/08 12:02:29;;;;;;;4.35;1.90;;;;;;;;;;5026159;28;20041;-59
2021/07/08 12:07:55;;;;;;;4.72;1.85;;;;;;;;;;5125532;27;20131;-57
2021/07/08 12:10:24;;;;;;;6.70;1.65;;;;;;;;;;5093960;28;20036;-57
2021/07/08 12:12:52;;;;;;;3.63;1.75;;;;;;;;;;5099132;28;20093;-57
2021/07/08 12:15:20;;;;;;;10.73;2.33;;;;;;;;;;5096461;28;20044;-57
2021/07/08 12:17:47;;;;;;;5.22;2.03;;;;;;;;;;5100192;28;20050;-57
2021/07/08 12:20:14;;;;;;;4.57;1.42;;;;;;;;;;5098159;28;20039;-56
2021/07/08 12:22:54;;;;;;;4.13;1.92;;;;;;;;;;5119737;28;20040;-57
2021/07/08 12:25:21;;;;;;;5.00;2.13;;;;;;;;;;5093956;28;20116;-57
2021/07/08 12:27:48;;;;;;;7.20;2.20;;;;;;;;;;5098962;28;20032;-57
2021/07/08 12:30:18;;;;;;;5.82;2.25;;;;;;;;;;5095807;28;20039;-57
2021/07/08 12:32:45;;;;;;;4.80;2.17;;;;;;;;;;5100372;28;20051;-57
2021/07/08 12:35:12;;;;;;;3.80;1.70;;;;;;;;;;5096308;28;20047;-56
2021/07/08 12:37:40;;;;;;;7.15;1.85;;;;;;;;;;5100678;28;20125;-57
2021/07/08 12:40:09;;;;;;;6.50;1.80;;;;;;;;;;5097141;28;20124;-57
2021/07/08 12:42:37;;;;;;;5.55;1.58;;;;;;;;;;5099326;28;20044;-56
2021/07/08 12:45:05;;;;;;;6.93;1.50;;;;;;;;;;5084187;28;20051;-57
2021/07/08 12:47:31;;;;;;;8.15;1.80;;;;;;;;;;5094522;28;20040;-57
2021/07/08 12:49:59;;;;;;;3.65;1.55;;;;;;;;;;5096936;28;20048;-57
2021/07/08 12:52:26;;;;;;;5.35;1.80;;;;;;;;;;5080017;28;20096;-57
2021/07/08 12:54:53;;;;;;;8.02;1.63;;;;;;;;;;5097047;28;20036;-57
2021/07/08 12:57:21;;;;;;;5.28;1.50;;;;;;;;;;5097609;28;20047;-57
2021/07/08 12:59:57;;;;;;;5.30;1.95;;;;;;;;;;5102143;28;20027;-57
2021/07/08 13:02:24;;;;;;;3.75;1.65;;;;;;;;;;5095301;28;20036;-55
2021/07/08 13:04:59;;;;;;;3.45;1.60;;;;;;;;;;5099616;28;20043;-57
2021/07/08 13:07:26;;;;;;;3.50;1.60;;;;;;;;;;5092519;28;20051;-55
2021/07/08 13:09:56;;;;;;;2.65;1.60;;;;;;;;;;5079693;28;20073;-57
2021/07/08 13:12:24;;;;;;;4.75;1.80;;;;;;;;;;5066835;28;20041;-56
2021/07/08 13:14:51;;;;;;;4.13;1.80;;;;;;;;;;5076244;28;20056;-57
2021/07/08 13:17:17;;;;;;;3.28;1.60;;;;;;;;;;5068179;28;20041;-56
2021/07/08 13:19:48;;;;;;;3.55;1.40;;;;;;;;;;5063506;28;20052;-56
2021/07/08 13:22:16;;;;;;;6.55;1.63;;;;;;;;;;5055610;28;20138;-57
2021/07/08 13:24:43;;;;;;;3.85;1.45;;;;;;;;;;5042088;28;20094;-55
2021/07/08 13:27:09;;;;;;;3.75;1.52;;;;;;;;;;5032334;28;20047;-56
2021/07/08 13:29:40;;;;;;;5.95;1.90;;;;;;;;;;5062418;28;20044;-56
2021/07/08 13:32:19;;;;;;;4.43;1.88;;;;;;;;;;5061068;28;20036;-57
2021/07/08 13:34:46;;;;;;;3.60;1.90;;;;;;;;;;5060884;28;20041;-56
2021/07/08 13:37:18;;;;;;;9.13;3.65;;;;;;;;;;5057916;28;20045;-57
2021/07/08 13:39:45;;;;;;;6.97;1.83;;;;;;;;;;5049390;28;20049;-56
2021/07/08 13:42:11;;;;;;;4.38;1.70;;;;;;;;;;5043283;28;20073;-56
2021/07/08 13:44:40;;;;;;;4.65;1.80;;;;;;;;;;5063124;28;20041;-57
2021/07/08 13:47:09;;;;;;;3.83;1.70;;;;;;;;;;5059475;28;20036;-55
2021/07/08 13:49:36;;;;;;;3.58;1.67;;;;;;;;;;5060785;28;20102;-56
2021/07/08 13:52:03;;;;;;;8.10;1.40;;;;;;;;;;5061806;28;20029;-54
2021/07/08 13:54:32;;;;;;;3.65;1.45;;;;;;;;;;5059163;28;20120;-57
2021/07/08 13:56:59;;;;;;;4.93;1.80;;;;;;;;;;5057655;28;20029;-57
2021/07/08 13:59:27;;;;;;;3.20;1.30;;;;;;;;;;5062287;28;20044;-56
2021/07/08 14:01:55;;;;;;;5.00;1.60;;;;;;;;;;5062396;28;20051;-56
2021/07/08 14:04:23;;;;;;;4.85;1.73;;;;;;;;;;5058311;28;20033;-57
2021/07/08 14:06:50;;;;;;;6.45;1.50;;;;;;;;;;5073258;28;20052;-57
2021/07/08 14:09:17;;;;;;;3.13;1.50;;;;;;;;;;5097359;28;20054;-56
2021/07/08 14:11:44;;;;;;;5.55;1.95;;;;;;;;;;5086870;28;20055;-56
2021/07/08 14:14:10;;;;;;;5.75;1.50;;;;;;;;;;5082417;28;20054;-55
2021/07/08 14:16:36;;;;;;;3.85;1.58;;;;;;;;;;5103603;28;20052;-57
2021/07/08 14:19:03;;;;;;;2.30;1.30;;;;;;;;;;5098899;28;20084;-55
2021/07/08 14:21:31;;;;;;;2.13;1.13;;;;;;;;;;5104586;28;20043;-57
2021/07/08 14:23:57;;;;;;;4.43;1.30;;;;;;;;;;5081064;28;20032;-57
2021/07/08 14:26:25;;;;;;;2.50;1.30;;;;;;;;;;5103790;28;20048;-57
2021/07/08 14:28:51;;;;;;;3.30;1.67;;;;;;;;;;5080085;28;20046;-57
2021/07/08 14:31:18;;;;;;;5.45;1.67;;;;;;;;;;5085797;28;20040;-57
2021/07/08 14:33:44;;;;;;;5.20;1.85;;;;;;;;;;5103937;28;20052;-56
2021/07/08 14:36:11;;;;;;;3.85;1.63;;;;;;;;;;5099507;28;20129;-56
2021/07/08 14:38:42;;;;;;;3.53;1.75;;;;;;;;;;5088107;28;20032;-56
2021/07/08 14:41:09;;;;;;;6.10;1.90;;;;;;;;;;5083883;28;20040;-57
2021/07/08 14:43:45;;;;;;;2.83;1.30;;;;;;;;;;5103737;28;20092;-56
2021/07/08 14:46:12;;;;;;;4.10;1.45;;;;;;;;;;5080840;28;20125;-57
2021/07/08 14:48:41;;;;;;;10.30;1.80;;;;;;;;;;5085724;28;20058;-56